Time;durP1;ratioP1;P1;durP2;ratioP2;P2;SDS_P1;SDS_P2;PMS_P1;PMS_P2;Temp;Humidity;BMP_temperature;BMP_pressure;BME280_temperature;BME280_humidity;BME280_pressure;Samples;Min_cycle;Max_cycle;Signal;HPM_P1;HPM_P2
2022/05/20 00:01:52;;;;;;;;;;;;;;;;;;5016134;28;19914;-43
2022/05/20 00:04:18;;;;;;;;;;;;;;;;;;5015707;28;19913;-43
2022/05/20 00:06:43;;;;;;;;;;;;;;;;;;5016093;28;20395;-43
2022/05/20 00:09:08;;;;;;;;;;;;;;;;;;5016406;28;20340;-43
2022/05/20 00:11:33;;;;;;;;;;;;;;;;;;5016332;28;19957;-43
2022/05/20 00:13:59;;;;;;;;;;;;;;;;;;5016511;28;19953;-44
2022/05/20 00:16:24;;;;;;;;;;;;;;;;;;5016530;28;19921;-43
2022/05/20 00:18:49;;;;;;;;;;;;;;;;;;5016455;28;20394;-43
2022/05/20 00:21:14;;;;;;;;;;;;;;;;;;5016234;28;20315;-42
2022/05/20 00:23:39;;;;;;;;;;;;;;;;;;5015848;28;20051;-44
2022/05/20 00:26:06;;;;;;;;;;;;;;;;;;5013806;28;20304;-43
2022/05/20 00:28:31;;;;;;;;;;;;;;;;;;5016218;28;19959;-44
2022/05/20 00:30:56;;;;;;;;;;;;;;;;;;5016031;28;20355;-43
2022/05/20 00:33:21;;;;;;;;;;;;;;;;;;5016069;28;19914;-44
2022/05/20 00:35:46;;;;;;;;;;;;;;;;;;5016227;28;19910;-44
2022/05/20 00:38:12;;;;;;;;;;;;;;;;;;5016129;28;19909;-44
2022/05/20 00:40:37;;;;;;;;;;;;;;;;;;5015882;28;20256;-44
2022/05/20 00:43:02;;;;;;;;;;;;;;;;;;5015951;28;19909;-43
2022/05/20 00:45:27;;;;;;;;;;;;;;;;;;5015729;28;19910;-44
2022/05/20 00:47:53;;;;;;;;;;;;;;;;;;5015506;28;19913;-44
2022/05/20 00:50:18;;;;;;;;;;;;;;;;;;5015676;28;19913;-44
2022/05/20 00:52:43;;;;;;;;;;;;;;;;;;5015762;28;19909;-43
2022/05/20 00:55:08;;;;;;;;;;;;;;;;;;5015737;28;19912;-44
2022/05/20 00:57:33;;;;;;;;;;;;;;;;;;5016156;28;19973;-44
2022/05/20 00:59:58;;;;;;;;;;;;;;;;;;5015700;28;19910;-43
2022/05/20 01:02:23;;;;;;;;;;;;;;;;;;5015582;28;19909;-44
2022/05/20 01:04:48;;;;;;;;;;;;;;;;;;5030586;28;20265;-44
2022/05/20 01:07:14;;;;;;;;;;;;;;;;;;5015379;28;19929;-44
2022/05/20 01:09:39;;;;;;;;;;;;;;;;;;5015229;28;19916;-41
2022/05/20 01:12:04;;;;;;;;;;;;;;;;;;5015450;28;19913;-44
2022/05/20 01:14:29;;;;;;;;;;;;;;;;;;5015311;28;19910;-43
2022/05/20 01:16:54;;;;;;;;;;;;;;;;;;5015358;28;20071;-44
2022/05/20 01:19:19;;;;;;;;;;;;;;;;;;5015365;28;20000;-43
2022/05/20 01:21:44;;;;;;;;;;;;;;;;;;5015322;28;19906;-45
2022/05/20 01:24:10;;;;;;;;;;;;;;;;;;5015299;28;19910;-44
2022/05/20 01:26:35;;;;;;;;;;;;;;;;;;5015103;28;19991;-44
2022/05/20 01:29:00;;;;;;;;;;;;;;;;;;5015162;28;19910;-44
2022/05/20 01:31:25;;;;;;;;;;;;;;;;;;5015221;28;20011;-44
2022/05/20 01:33:50;;;;;;;;;;;;;;;;;;5015195;28;20000;-44
2022/05/20 01:36:15;;;;;;;;;;;;;;;;;;5014411;28;20008;-44
2022/05/20 01:38:40;;;;;;;;;;;;;;;;;;5014970;28;19913;-44
2022/05/20 01:41:05;;;;;;;;;;;;;;;;;;5014928;28;20342;-44
2022/05/20 01:43:31;;;;;;;;;;;;;;;;;;5014900;28;19910;-45
2022/05/20 01:45:56;;;;;;;;;;;;;;;;;;5014664;28;20292;-41
2022/05/20 01:48:21;;;;;;;;;;;;;;;;;;5014844;28;19914;-44
2022/05/20 01:50:46;;;;;;;;;;;;;;;;;;5014890;28;20004;-45
2022/05/20 01:53:11;;;;;;;;;;;;;;;;;;5014843;28;20004;-44
2022/05/20 01:55:36;;;;;;;;;;;;;;;;;;5014812;28;19963;-44
2022/05/20 01:58:01;;;;;;;;;;;;;;;;;;5014765;28;20372;-44
2022/05/20 02:00:26;;;;;;;;;;;;;;;;;;5014709;28;19913;-45
2022/05/20 02:02:52;;;;;;;;;;;;;;;;;;5014736;28;19964;-43
2022/05/20 02:05:20;;;;;;;;;;;;;;;;;;5014745;28;19913;-44
2022/05/20 02:07:45;;;;;;;;;;;;;;;;;;5014423;28;19969;-44
2022/05/20 02:10:10;;;;;;;;;;;;;;;;;;5014957;28;20347;-45
2022/05/20 02:12:37;;;;;;;;;;;;;;;;;;5014760;28;19967;-44
2022/05/20 02:15:02;;;;;;;;;;;;;;;;;;5014477;28;19910;-43
2022/05/20 02:17:27;;;;;;;;;;;;;;;;;;5014160;28;20338;-43
2022/05/20 02:19:52;;;;;;;;;;;;;;;;;;5014548;28;19916;-44
2022/05/20 02:22:17;;;;;;;;;;;;;;;;;;5014609;28;19916;-44
2022/05/20 02:24:43;;;;;;;;;;;;;;;;;;5013544;28;19920;-45
2022/05/20 02:27:08;;;;;;;;;;;;;;;;;;5013565;28;19914;-44
2022/05/20 02:29:33;;;;;;;;;;;;;;;;;;5014470;28;19997;-44
2022/05/20 02:31:58;;;;;;;;;;;;;;;;;;5014442;28;19909;-45
2022/05/20 02:34:23;;;;;;;;;;;;;;;;;;5014509;28;19964;-44
2022/05/20 02:36:48;;;;;;;;;;;;;;;;;;5014568;28;19964;-44
2022/05/20 02:39:16;;;;;;;;;;;;;;;;;;5014342;28;19909;-44
2022/05/20 02:41:41;;;;;;;;;;;;;;;;;;5014225;28;20030;-44
2022/05/20 02:44:06;;;;;;;;;;;;;;;;;;5029450;28;20000;-44
2022/05/20 02:46:31;;;;;;;;;;;;;;;;;;5014230;28;20000;-44
2022/05/20 02:48:56;;;;;;;;;;;;;;;;;;5017620;28;19913;-43
2022/05/20 02:51:21;;;;;;;;;;;;;;;;;;5017714;28;20020;-44
2022/05/20 02:53:47;;;;;;;;;;;;;;;;;;5017737;28;19910;-44
2022/05/20 02:56:12;;;;;;;;;;;;;;;;;;5017516;28;19914;-44
2022/05/20 03:04:11;;;;;;;;;;;;;;;;;;5017602;28;20292;-43
2022/05/20 03:06:36;;;;;;;;;;;;;;;;;;5030783;22;19921;-44
2022/05/20 03:09:01;;;;;;;;;;;;;;;;;;5057225;28;19913;-44
2022/05/20 03:11:26;;;;;;;;;;;;;;;;;;5057113;28;19974;-44
2022/05/20 03:13:52;;;;;;;;;;;;;;;;;;5057151;28;19909;-44
2022/05/20 03:16:17;;;;;;;;;;;;;;;;;;5057022;28;19988;-44
2022/05/20 03:18:42;;;;;;;;;;;;;;;;;;5057021;28;19963;-44
2022/05/20 03:21:07;;;;;;;;;;;;;;;;;;5056894;28;19927;-44
2022/05/20 03:23:32;;;;;;;;;;;;;;;;;;5056832;28;19915;-44
2022/05/20 03:25:58;;;;;;;;;;;;;;;;;;5056497;28;19977;-43
2022/05/20 03:28:23;;;;;;;;;;;;;;;;;;5056737;28;19943;-44
2022/05/20 03:30:48;;;;;;;;;;;;;;;;;;5056644;28;19916;-44
2022/05/20 03:33:13;;;;;;;;;;;;;;;;;;5056844;28;19909;-45
2022/05/20 03:35:38;;;;;;;;;;;;;;;;;;5056709;28;19908;-44
2022/05/20 03:38:04;;;;;;;;;;;;;;;;;;5056166;28;19913;-44
2022/05/20 03:40:29;;;;;;;;;;;;;;;;;;5056548;28;19917;-44
2022/05/20 03:42:54;;;;;;;;;;;;;;;;;;5056600;28;20368;-44
2022/05/20 03:45:19;;;;;;;;;;;;;;;;;;5056453;28;19912;-44
2022/05/20 03:47:44;;;;;;;;;;;;;;;;;;5056454;28;19913;-44
2022/05/20 03:50:09;;;;;;;;;;;;;;;;;;5056404;28;19916;-44
2022/05/20 03:52:35;;;;;;;;;;;;;;;;;;5056513;28;19909;-43
2022/05/20 03:55:00;;;;;;;;;;;;;;;;;;5056338;28;19967;-44
2022/05/20 03:57:25;;;;;;;;;;;;;;;;;;5056356;28;19948;-43
2022/05/20 03:59:51;;;;;;;;;;;;;;;;;;5055568;28;19922;-44
2022/05/20 04:02:16;;;;;;;;;;;;;;;;;;5056129;28;19944;-44
2022/05/20 04:04:41;;;;;;;;;;;;;;;;;;5056272;28;19915;-44
2022/05/20 04:07:07;;;;;;;;;;;;;;;;;;5055716;28;19924;-44
2022/05/20 04:09:32;;;;;;;;;;;;;;;;;;5055815;28;19966;-44
2022/05/20 04:11:57;;;;;;;;;;;;;;;;;;5056057;28;19974;-44
2022/05/20 04:14:22;;;;;;;;;;;;;;;;;;5056000;28;19909;-43
2022/05/20 04:16:48;;;;;;;;;;;;;;;;;;5055819;28;19916;-45
2022/05/20 04:19:13;;;;;;;;;;;;;;;;;;5056013;28;19916;-44
2022/05/20 04:21:41;;;;;;;;;;;;;;;;;;5055805;28;19909;-44
2022/05/20 04:24:06;;;;;;;;;;;;;;;;;;5055684;28;19917;-45
2022/05/20 04:26:34;;;;;;;;;;;;;;;;;;5055628;28;19920;-45
2022/05/20 04:28:59;;;;;;;;;;;;;;;;;;5055575;28;19909;-44
2022/05/20 04:31:24;;;;;;;;;;;;;;;;;;5055412;28;19913;-44
2022/05/20 04:33:49;;;;;;;;;;;;;;;;;;5055703;28;19915;-44
2022/05/20 04:36:14;;;;;;;;;;;;;;;;;;5055610;28;19918;-44
2022/05/20 04:38:39;;;;;;;;;;;;;;;;;;5055523;28;20000;-44
2022/05/20 04:49:16;;;;;;;;;;;;;;;;;;5055489;28;19965;-44
2022/05/20 04:51:41;;;;;;;;;;;;;;;;;;5055176;28;19916;-44
2022/05/20 04:56:50;;;;;;;;;;;;;;;;;;5055200;28;19920;-44
2022/05/20 04:59:15;;;;;;;;;;;;;;;;;;5055258;28;19913;-44
2022/05/20 05:01:40;;;;;;;;;;;;;;;;;;5054988;28;19912;-45
2022/05/20 05:04:06;;;;;;;;;;;;;;;;;;5055102;28;19913;-44
2022/05/20 05:06:31;;;;;;;;;;;;;;;;;;5055060;28;19916;-43
2022/05/20 05:08:56;;;;;;;;;;;;;;;;;;5054895;28;19940;-44
2022/05/20 05:11:21;;;;;;;;;;;;;;;;;;5053836;28;19966;-43
2022/05/20 05:13:46;;;;;;;;;;;;;;;;;;5054988;28;19913;-44
2022/05/20 05:16:11;;;;;;;;;;;;;;;;;;5053620;28;19909;-45
2022/05/20 05:18:37;;;;;;;;;;;;;;;;;;5054798;28;19924;-44
2022/05/20 05:21:02;;;;;;;;;;;;;;;;;;5054561;28;19909;-45
2022/05/20 05:23:27;;;;;;;;;;;;;;;;;;5028778;28;19913;-44
2022/05/20 05:25:52;;;;;;;;;;;;;;;;;;5031829;28;19921;-47
2022/05/20 05:28:17;;;;;;;;;;;;;;;;;;5033988;28;20387;-45
2022/05/20 05:30:43;;;;;;;;;;;;;;;;;;5034876;28;19917;-44
2022/05/20 05:33:09;;;;;;;;;;;;;;;;;;5030436;28;19913;-46
2022/05/20 05:35:34;;;;;;;;;;;;;;;;;;5034952;28;20319;-46
2022/05/20 05:37:59;;;;;;;;;;;;;;;;;;5038303;28;19916;-46
2022/05/20 05:40:24;;;;;;;;;;;;;;;;;;5037338;28;19916;-45
2022/05/20 05:42:49;;;;;;;;;;;;;;;;;;5039030;28;19920;-46
2022/05/20 05:45:15;;;;;;;;;;;;;;;;;;5035203;28;19967;-45
2022/05/20 05:47:40;;;;;;;;;;;;;;;;;;5033796;28;19963;-46
2022/05/20 05:50:05;;;;;;;;;;;;;;;;;;5040085;28;19917;-45
2022/05/20 05:52:30;;;;;;;;;;;;;;;;;;5029161;28;19921;-45
2022/05/20 05:54:55;;;;;;;;;;;;;;;;;;5022617;28;19913;-46
2022/05/20 05:57:20;;;;;;;;;;;;;;;;;;5022083;28;20032;-46
2022/05/20 05:59:45;;;;;;;;;;;;;;;;;;5010375;28;19921;-46
2022/05/20 06:02:11;;;;;;;;;;;;;;;;;;5005784;28;19928;-46
2022/05/20 06:04:36;;;;;;;;;;;;;;;;;;5018128;28;22043;-46
2022/05/20 06:07:01;;;;;;;;;;;;;;;;;;5009105;28;19955;-48
2022/05/20 06:09:26;;;;;;;;;;;;;;;;;;5004140;28;19921;-46
2022/05/20 06:11:51;;;;;;;;;;;;;;;;;;4994628;28;19932;-48
2022/05/20 06:14:16;;;;;;;;;;;;;;;;;;4958422;28;19921;-45
2022/05/20 06:16:41;;;;;;;;;;;;;;;;;;4907816;28;21568;-47
2022/05/20 06:19:06;;;;;;;;;;;;;;;;;;4848577;28;21526;-47
2022/05/20 06:21:32;;;;;;;;;;;;;;;;;;4785321;28;23531;-47
2022/05/20 06:23:57;;;;;;;;;;;;;;;;;;4742661;28;19971;-47
2022/05/20 06:26:22;;;;;;;;;;;;;;;;;;4605668;28;21970;-49
2022/05/20 06:28:47;;;;;;;;;;;;;;;;;;4436220;28;28355;-47
2022/05/20 06:31:12;;;;;;;;;;;;;;;;;;4468104;28;24775;-47
2022/05/20 06:33:38;;;;;;;;;;;;;;;;;;4665902;28;21781;-47
2022/05/20 06:41:31;;;;;;;;;;;;;;;;;;4830537;28;19924;-46
2022/05/20 06:43:57;;;;;;;;;;;;;;;;;;4825538;28;19921;-46
2022/05/20 06:46:22;;;;;;;;;;;;;;;;;;4855464;28;20026;-45
2022/05/20 06:48:47;;;;;;;;;;;;;;;;;;4873239;28;21496;-47
2022/05/20 06:51:12;;;;;;;;;;;;;;;;;;4867558;28;19932;-46
2022/05/20 06:53:38;;;;;;;;;;;;;;;;;;4852944;28;19931;-48
2022/05/20 06:56:03;;;;;;;;;;;;;;;;;;4883893;28;19921;-46
2022/05/20 06:58:28;;;;;;;;;;;;;;;;;;4865399;28;21070;-46
2022/05/20 07:00:53;;;;;;;;;;;;;;;;;;4820664;28;19921;-46
2022/05/20 07:03:20;;;;;;;;;;;;;;;;;;4829959;28;19925;-45
2022/05/20 07:05:45;;;;;;;;;;;;;;;;;;4854548;28;22917;-46
2022/05/20 07:08:10;;;;;;;;;;;;;;;;;;4843963;28;20349;-45
2022/05/20 07:10:35;;;;;;;;;;;;;;;;;;4834203;28;19925;-45
2022/05/20 07:13:00;;;;;;;;;;;;;;;;;;4799796;28;19954;-45
2022/05/20 07:15:26;;;;;;;;;;;;;;;;;;4781551;28;20706;-47
2022/05/20 07:17:51;;;;;;;;;;;;;;;;;;4712828;28;23188;-46
2022/05/20 07:20:16;;;;;;;;;;;;;;;;;;4669499;28;36930;-49
2022/05/20 07:22:41;;;;;;;;;;;;;;;;;;4399438;28;32164;-47
2022/05/20 07:25:06;;;;;;;;;;;;;;;;;;4379340;28;41896;-48
2022/05/20 07:27:32;;;;;;;;;;;;;;;;;;4492217;28;38954;-46
2022/05/20 07:29:57;;;;;;;;;;;;;;;;;;4660325;28;41502;-48
2022/05/20 07:32:22;;;;;;;;;;;;;;;;;;4651398;28;25194;-46
2022/05/20 07:34:47;;;;;;;;;;;;;;;;;;4727582;28;44153;-49
2022/05/20 07:37:13;;;;;;;;;;;;;;;;;;4720247;28;38379;-46
2022/05/20 07:39:38;;;;;;;;;;;;;;;;;;4748300;28;31839;-46
2022/05/20 07:42:03;;;;;;;;;;;;;;;;;;4759263;28;23020;-46
2022/05/20 07:44:28;;;;;;;;;;;;;;;;;;4651668;28;32148;-45
2022/05/20 07:46:53;;;;;;;;;;;;;;;;;;4629138;28;42542;-47
2022/05/20 07:49:18;;;;;;;;;;;;;;;;;;4727198;28;33941;-46
2022/05/20 07:51:43;;;;;;;;;;;;;;;;;;4747110;28;35613;-47
2022/05/20 07:54:09;;;;;;;;;;;;;;;;;;4709136;28;32484;-45
2022/05/20 07:56:34;;;;;;;;;;;;;;;;;;4689450;28;36670;-47
2022/05/20 07:58:59;;;;;;;;;;;;;;;;;;4667222;28;40027;-47
2022/05/20 08:01:24;;;;;;;;;;;;;;;;;;4626418;28;40243;-45
2022/05/20 08:06:33;;;;;;;;;;;;;;;;;;4714418;28;32129;-45
2022/05/20 08:08:58;;;;;;;;;;;;;;;;;;4655554;28;20544;-46
2022/05/20 08:11:23;;;;;;;;;;;;;;;;;;4569113;28;24203;-46
2022/05/20 08:13:50;;;;;;;;;;;;;;;;;;4522112;28;20767;-47
2022/05/20 08:16:15;;;;;;;;;;;;;;;;;;4713105;28;19928;-46
2022/05/20 08:18:40;;;;;;;;;;;;;;;;;;4744266;28;22302;-47
2022/05/20 08:21:06;;;;;;;;;;;;;;;;;;4752592;28;26877;-48
2022/05/20 08:23:31;;;;;;;;;;;;;;;;;;4755972;28;20722;-48
2022/05/20 08:25:56;;;;;;;;;;;;;;;;;;4711424;28;24020;-47
2022/05/20 08:28:21;;;;;;;;;;;;;;;;;;4575840;28;21250;-48
2022/05/20 08:30:46;;;;;;;;;;;;;;;;;;4437847;28;30932;-44
2022/05/20 08:33:11;;;;;;;;;;;;;;;;;;4501481;28;25455;-46
2022/05/20 08:35:36;;;;;;;;;;;;;;;;;;4624733;28;47534;-46
2022/05/20 08:38:02;;;;;;;;;;;;;;;;;;4708120;28;25328;-46
2022/05/20 08:40:27;;;;;;;;;;;;;;;;;;4738581;28;42355;-46
2022/05/20 08:42:52;;;;;;;;;;;;;;;;;;4728378;28;24889;-46
2022/05/20 08:45:17;;;;;;;;;;;;;;;;;;4766864;28;22850;-47
2022/05/20 08:47:42;;;;;;;;;;;;;;;;;;4769689;28;25320;-45
2022/05/20 08:50:08;;;;;;;;;;;;;;;;;;4754624;28;29723;-46
2022/05/20 08:52:33;;;;;;;;;;;;;;;;;;4762309;28;21508;-47
2022/05/20 08:54:58;;;;;;;;;;;;;;;;;;4745933;28;32513;-55
2022/05/20 08:57:23;;;;;;;;;;;;;;;;;;4724154;28;21052;-46
2022/05/20 08:59:49;;;;;;;;;;;;;;;;;;4705575;28;23536;-45
2022/05/20 09:02:14;;;;;;;;;;;;;;;;;;4723359;28;25713;-47
2022/05/20 09:04:39;;;;;;;;;;;;;;;;;;4749985;28;26771;-48
2022/05/20 09:07:04;;;;;;;;;;;;;;;;;;4729926;28;32804;-46
2022/05/20 09:09:30;;;;;;;;;;;;;;;;;;4719153;28;42793;-47
2022/05/20 09:11:55;;;;;;;;;;;;;;;;;;4717838;28;33837;-46
2022/05/20 09:17:04;;;;;;;;;;;;;;;;;;4630976;28;23451;-45
2022/05/20 09:19:29;;;;;;;;;;;;;;;;;;4584198;28;30051;-46
2022/05/20 09:21:54;;;;;;;;;;;;;;;;;;4447260;28;37886;-45
2022/05/20 09:24:19;;;;;;;;;;;;;;;;;;4331962;28;26191;-47
2022/05/20 09:26:45;;;;;;;;;;;;;;;;;;4332037;28;34683;-47
2022/05/20 09:29:10;;;;;;;;;;;;;;;;;;4590647;28;32292;-46
2022/05/20 09:31:35;;;;;;;;;;;;;;;;;;4659054;28;21930;-46
2022/05/20 09:34:00;;;;;;;;;;;;;;;;;;4745219;28;22568;-47
2022/05/20 09:36:25;;;;;;;;;;;;;;;;;;4739667;28;30867;-45
2022/05/20 09:38:50;;;;;;;;;;;;;;;;;;4751446;28;35178;-47
2022/05/20 09:41:15;;;;;;;;;;;;;;;;;;4687138;28;29272;-47
2022/05/20 09:43:41;;;;;;;;;;;;;;;;;;4745314;28;24230;-47
2022/05/20 09:46:06;;;;;;;;;;;;;;;;;;4693762;28;20659;-46
2022/05/20 09:48:31;;;;;;;;;;;;;;;;;;4684699;28;19921;-47
2022/05/20 09:50:57;;;;;;;;;;;;;;;;;;4722673;28;20657;-47
2022/05/20 09:53:22;;;;;;;;;;;;;;;;;;4670436;28;19921;-46
2022/05/20 09:55:47;;;;;;;;;;;;;;;;;;4660790;28;24969;-51
2022/05/20 09:58:13;;;;;;;;;;;;;;;;;;4699795;28;25104;-45
2022/05/20 10:00:38;;;;;;;;;;;;;;;;;;4710628;28;31030;-49
2022/05/20 10:03:03;;;;;;;;;;;;;;;;;;4690802;28;32629;-47
2022/05/20 10:05:28;;;;;;;;;;;;;;;;;;4671272;28;26167;-48
2022/05/20 10:07:53;;;;;;;;;;;;;;;;;;4622279;28;22447;-47
2022/05/20 10:10:18;;;;;;;;;;;;;;;;;;4552510;28;39058;-45
2022/05/20 10:12:44;;;;;;;;;;;;;;;;;;4365184;28;39178;-46
2022/05/20 10:15:12;;;;;;;;;;;;;;;;;;4464563;28;33227;-46
2022/05/20 10:17:37;;;;;;;;;;;;;;;;;;4614604;28;36823;-45
2022/05/20 10:20:02;;;;;;;;;;;;;;;;;;4682906;28;31920;-49
2022/05/20 10:22:27;;;;;;;;;;;;;;;;;;4694424;28;33217;-43
2022/05/20 10:24:52;;;;;;;;;;;;;;;;;;4719850;28;37437;-48
2022/05/20 10:27:18;;;;;;;;;;;;;;;;;;4700161;28;32599;-47
2022/05/20 10:32:36;;;;;;;;;;;;;;;;;;4695689;28;36656;-49
2022/05/20 10:35:01;;;;;;;;;;;;;;;;;;4743544;28;29054;-48
2022/05/20 10:37:27;;;;;;;;;;;;;;;;;;4668585;28;36426;-47
2022/05/20 10:39:52;;;;;;;;;;;;;;;;;;4649074;28;39640;-47
2022/05/20 10:42:17;;;;;;;;;;;;;;;;;;4626478;28;23685;-46
2022/05/20 10:50:10;;;;;;;;;;;;;;;;;;4745189;28;27928;-46
2022/05/20 10:52:35;;;;;;;;;;;;;;;;;;4718650;28;37584;-47
2022/05/20 10:55:00;;;;;;;;;;;;;;;;;;4669342;28;37258;-47
2022/05/20 10:57:25;;;;;;;;;;;;;;;;;;4733577;28;19999;-47
2022/05/20 10:59:51;;;;;;;;;;;;;;;;;;4745483;28;21013;-47
2022/05/20 11:02:16;;;;;;;;;;;;;;;;;;4689379;28;35663;-47
2022/05/20 11:04:41;;;;;;;;;;;;;;;;;;4668966;28;31238;-45
2022/05/20 11:07:06;;;;;;;;;;;;;;;;;;4700960;28;20371;-47
2022/05/20 11:09:31;;;;;;;;;;;;;;;;;;4661792;28;20624;-47
2022/05/20 11:11:57;;;;;;;;;;;;;;;;;;4690534;28;26675;-49
2022/05/20 11:14:22;;;;;;;;;;;;;;;;;;4709010;28;33678;-49
2022/05/20 11:16:48;;;;;;;;;;;;;;;;;;4728166;28;21044;-45
2022/05/20 11:19:13;;;;;;;;;;;;;;;;;;4753123;28;21497;-47
2022/05/20 11:21:38;;;;;;;;;;;;;;;;;;4778817;28;21304;-45
2022/05/20 11:24:03;;;;;;;;;;;;;;;;;;4762143;28;20702;-46
2022/05/20 11:26:28;;;;;;;;;;;;;;;;;;4686409;28;26937;-47
2022/05/20 11:28:53;;;;;;;;;;;;;;;;;;4685995;28;19971;-48
2022/05/20 11:31:19;;;;;;;;;;;;;;;;;;4620268;28;22780;-47
2022/05/20 11:33:44;;;;;;;;;;;;;;;;;;4560658;28;23806;-45
2022/05/20 11:36:10;;;;;;;;;;;;;;;;;;4705014;28;26276;-47
2022/05/20 11:38:35;;;;;;;;;;;;;;;;;;4746867;28;29339;-45
2022/05/20 11:41:02;;;;;;;;;;;;;;;;;;4774479;28;20739;-46
2022/05/20 11:43:29;;;;;;;;;;;;;;;;;;4753552;28;20027;-47
2022/05/20 11:45:54;;;;;;;;;;;;;;;;;;4788804;28;19920;-49
2022/05/20 11:48:20;;;;;;;;;;;;;;;;;;4788603;28;20118;-50
2022/05/20 11:50:45;;;;;;;;;;;;;;;;;;4753487;28;21751;-49
2022/05/20 11:53:11;;;;;;;;;;;;;;;;;;4785123;28;27187;-46
2022/05/20 11:55:36;;;;;;;;;;;;;;;;;;4762550;28;19951;-49
2022/05/20 11:58:02;;;;;;;;;;;;;;;;;;4760644;28;20660;-50
2022/05/20 12:00:27;;;;;;;;;;;;;;;;;;4748197;28;21359;-50
2022/05/20 12:02:52;;;;;;;;;;;;;;;;;;4722975;28;24656;-47
2022/05/20 12:05:17;;;;;;;;;;;;;;;;;;4707880;28;24836;-47
2022/05/20 12:07:42;;;;;;;;;;;;;;;;;;4739894;28;34907;-54
2022/05/20 12:10:07;;;;;;;;;;;;;;;;;;4707754;28;33968;-49
2022/05/20 12:12:33;;;;;;;;;;;;;;;;;;4717033;28;19921;-48
2022/05/20 12:14:58;;;;;;;;;;;;;;;;;;4730632;28;21876;-48
2022/05/20 12:17:23;;;;;;;;;;;;;;;;;;4703367;28;21428;-47
2022/05/20 12:25:16;;;;;;;;;;;;;;;;;;4646110;28;20003;-48
2022/05/20 12:27:41;;;;;;;;;;;;;;;;;;4654875;28;24072;-49
2022/05/20 12:30:06;;;;;;;;;;;;;;;;;;4672715;28;21021;-50
2022/05/20 12:32:31;;;;;;;;;;;;;;;;;;4736071;28;22119;-51
2022/05/20 12:34:56;;;;;;;;;;;;;;;;;;4762261;28;19944;-50
2022/05/20 12:37:22;;;;;;;;;;;;;;;;;;4768511;28;21073;-49
2022/05/20 12:39:47;;;;;;;;;;;;;;;;;;4809922;28;21055;-48
2022/05/20 12:42:12;;;;;;;;;;;;;;;;;;4758079;28;22735;-50
2022/05/20 12:44:37;;;;;;;;;;;;;;;;;;4734294;28;20723;-49
2022/05/20 12:47:02;;;;;;;;;;;;;;;;;;4768141;28;21985;-49
2022/05/20 12:49:27;;;;;;;;;;;;;;;;;;4777058;28;21227;-49
2022/05/20 12:51:53;;;;;;;;;;;;;;;;;;4784662;28;19933;-49
2022/05/20 12:54:19;;;;;;;;;;;;;;;;;;4798313;28;19928;-50
2022/05/20 12:56:44;;;;;;;;;;;;;;;;;;4765517;28;19921;-49
2022/05/20 12:59:09;;;;;;;;;;;;;;;;;;4781760;28;21428;-46
2022/05/20 13:01:34;;;;;;;;;;;;;;;;;;4767573;28;23815;-49
2022/05/20 13:03:59;;;;;;;;;;;;;;;;;;4754704;28;20655;-49
2022/05/20 13:06:24;;;;;;;;;;;;;;;;;;4791422;28;22238;-50
2022/05/20 13:08:49;;;;;;;;;;;;;;;;;;4767213;28;20750;-50
2022/05/20 13:11:14;;;;;;;;;;;;;;;;;;4693818;28;20862;-48
2022/05/20 13:13:40;;;;;;;;;;;;;;;;;;4730062;28;20668;-50
2022/05/20 13:16:05;;;;;;;;;;;;;;;;;;4816954;28;20425;-49
2022/05/20 13:18:30;;;;;;;;;;;;;;;;;;4868734;28;20653;-48
2022/05/20 13:20:55;;;;;;;;;;;;;;;;;;4863032;28;20014;-48
2022/05/20 13:23:20;;;;;;;;;;;;;;;;;;4874624;28;19921;-47
2022/05/20 13:25:45;;;;;;;;;;;;;;;;;;4890265;28;19921;-48
2022/05/20 13:28:10;;;;;;;;;;;;;;;;;;4876658;28;19995;-49
2022/05/20 13:30:36;;;;;;;;;;;;;;;;;;4911860;28;20299;-49
2022/05/20 13:33:01;;;;;;;;;;;;;;;;;;4918933;28;20012;-53
2022/05/20 13:35:26;;;;;;;;;;;;;;;;;;4909645;28;22164;-49
2022/05/20 13:37:51;;;;;;;;;;;;;;;;;;4920305;28;19947;-47
2022/05/20 13:40:16;;;;;;;;;;;;;;;;;;4918760;28;19925;-49
2022/05/20 13:42:41;;;;;;;;;;;;;;;;;;4914367;28;20597;-48
2022/05/20 13:45:06;;;;;;;;;;;;;;;;;;4918279;28;20080;-47
2022/05/20 13:50:15;;;;;;;;;;;;;;;;;;4928379;28;20114;-48
2022/05/20 13:52:43;;;;;;;;;;;;;;;;;;4921475;28;19929;-45
2022/05/20 13:55:08;;;;;;;;;;;;;;;;;;4922122;28;20537;-48
2022/05/20 13:57:33;;;;;;;;;;;;;;;;;;4931719;28;20037;-49
2022/05/20 13:59:59;;;;;;;;;;;;;;;;;;4921234;28;20625;-47
2022/05/20 14:02:24;;;;;;;;;;;;;;;;;;4907155;28;21240;-47
2022/05/20 14:04:49;;;;;;;;;;;;;;;;;;4904673;28;19924;-45
2022/05/20 14:07:16;;;;;;;;;;;;;;;;;;4938239;28;20042;-46
2022/05/20 14:09:41;;;;;;;;;;;;;;;;;;4953436;28;19928;-47
2022/05/20 14:12:06;;;;;;;;;;;;;;;;;;4962621;28;20597;-47
2022/05/20 14:14:31;;;;;;;;;;;;;;;;;;4964883;28;19949;-47
2022/05/20 14:16:57;;;;;;;;;;;;;;;;;;4977128;28;20557;-46
2022/05/20 14:19:22;;;;;;;;;;;;;;;;;;4965557;28;19952;-45
2022/05/20 14:21:47;;;;;;;;;;;;;;;;;;4969941;28;19921;-46
2022/05/20 14:24:13;;;;;;;;;;;;;;;;;;4978567;28;20524;-48
2022/05/20 14:26:38;;;;;;;;;;;;;;;;;;4957616;28;19969;-46
2022/05/20 14:29:03;;;;;;;;;;;;;;;;;;4965944;28;20576;-47
2022/05/20 14:31:29;;;;;;;;;;;;;;;;;;4977653;28;19929;-47
2022/05/20 14:33:54;;;;;;;;;;;;;;;;;;4976755;28;19930;-46
2022/05/20 14:36:19;;;;;;;;;;;;;;;;;;4947335;28;20369;-46
2022/05/20 14:38:44;;;;;;;;;;;;;;;;;;4920909;28;19925;-48
2022/05/20 14:41:10;;;;;;;;;;;;;;;;;;4885365;28;21828;-46
2022/05/20 14:43:35;;;;;;;;;;;;;;;;;;4884999;28;20486;-47
2022/05/20 14:46:00;;;;;;;;;;;;;;;;;;4871103;28;19984;-46
2022/05/20 14:48:26;;;;;;;;;;;;;;;;;;4924900;28;19921;-47
2022/05/20 14:50:51;;;;;;;;;;;;;;;;;;4911633;28;20043;-47
2022/05/20 14:53:16;;;;;;;;;;;;;;;;;;4937295;28;20639;-46
2022/05/20 14:55:41;;;;;;;;;;;;;;;;;;4964708;28;20296;-47
2022/05/20 14:58:06;;;;;;;;;;;;;;;;;;4975927;28;20872;-46
2022/05/20 15:00:32;;;;;;;;;;;;;;;;;;4989598;28;19932;-45
2022/05/20 15:02:57;;;;;;;;;;;;;;;;;;4980395;28;19921;-47
2022/05/20 15:05:22;;;;;;;;;;;;;;;;;;4980825;28;20434;-45
2022/05/20 15:07:47;;;;;;;;;;;;;;;;;;4980209;23;19937;-49
2022/05/20 15:10:12;;;;;;;;;;;;;;;;;;4980156;28;19913;-48
2022/05/20 15:12:37;;;;;;;;;;;;;;;;;;4995862;28;19952;-48
2022/05/20 15:15:02;;;;;;;;;;;;;;;;;;5004765;28;20407;-45
2022/05/20 15:17:28;;;;;;;;;;;;;;;;;;5004972;28;19917;-46
2022/05/20 15:19:53;;;;;;;;;;;;;;;;;;5008379;28;21685;-53
2022/05/20 15:22:18;;;;;;;;;;;;;;;;;;4983391;28;19980;-47
2022/05/20 15:24:44;;;;;;;;;;;;;;;;;;5004082;28;19929;-44
2022/05/20 15:27:10;;;;;;;;;;;;;;;;;;5003922;28;19967;-46
2022/05/20 15:29:35;;;;;;;;;;;;;;;;;;5006863;28;20292;-47
2022/05/20 15:34:54;;;;;;;;;;;;;;;;;;5017457;28;20386;-46
2022/05/20 15:37:19;;;;;;;;;;;;;;;;;;5013381;28;19967;-46
2022/05/20 15:39:45;;;;;;;;;;;;;;;;;;5016252;28;19918;-46
2022/05/20 15:42:11;;;;;;;;;;;;;;;;;;5017724;28;20332;-45
2022/05/20 15:44:36;;;;;;;;;;;;;;;;;;5017991;28;19928;-47
2022/05/20 15:47:02;;;;;;;;;;;;;;;;;;5015122;28;19972;-47
2022/05/20 15:49:27;;;;;;;;;;;;;;;;;;5022357;28;20007;-46
2022/05/20 15:51:52;;;;;;;;;;;;;;;;;;5036997;28;20280;-46
2022/05/20 15:54:17;;;;;;;;;;;;;;;;;;5035941;28;20391;-45
2022/05/20 15:56:42;;;;;;;;;;;;;;;;;;5031518;28;19917;-46
2022/05/20 15:59:07;;;;;;;;;;;;;;;;;;5036102;28;19916;-46
2022/05/20 16:01:37;;;;;;;;;;;;;;;;;;5037259;28;19952;-46
2022/05/20 16:04:03;;;;;;;;;;;;;;;;;;5033508;28;19967;-46
2022/05/20 16:06:29;;;;;;;;;;;;;;;;;;5037350;28;19917;-45
2022/05/20 16:08:54;;;;;;;;;;;;;;;;;;5036856;28;19924;-46
2022/05/20 16:11:19;;;;;;;;;;;;;;;;;;5038401;28;20284;-47
2022/05/20 16:13:47;;;;;;;;;;;;;;;;;;5037861;28;19916;-47
2022/05/20 16:16:12;;;;;;;;;;;;;;;;;;5038593;28;19931;-46
2022/05/20 16:18:37;;;;;;;;;;;;;;;;;;5038725;28;19909;-47
2022/05/20 16:21:03;;;;;;;;;;;;;;;;;;5037635;28;19913;-46
2022/05/20 16:23:29;;;;;;;;;;;;;;;;;;5036700;28;19913;-47
2022/05/20 16:25:55;;;;;;;;;;;;;;;;;;5037227;28;19916;-48
2022/05/20 16:28:20;;;;;;;;;;;;;;;;;;5036914;28;19921;-47
2022/05/20 16:30:47;;;;;;;;;;;;;;;;;;5035426;28;19917;-47
2022/05/20 16:33:13;;;;;;;;;;;;;;;;;;5036428;28;20353;-45
2022/05/20 16:35:41;;;;;;;;;;;;;;;;;;5036827;28;19913;-44
2022/05/20 16:38:07;;;;;;;;;;;;;;;;;;5038616;28;19913;-46
2022/05/20 16:40:32;;;;;;;;;;;;;;;;;;5036066;28;19915;-43
2022/05/20 16:42:59;;;;;;;;;;;;;;;;;;5034234;28;19919;-43
2022/05/20 16:45:24;;;;;;;;;;;;;;;;;;5035121;28;19921;-44
2022/05/20 16:47:49;;;;;;;;;;;;;;;;;;5035396;28;19919;-43
2022/05/20 16:50:17;;;;;;;;;;;;;;;;;;5035255;28;19959;-43
2022/05/20 16:52:45;;;;;;;;;;;;;;;;;;5035402;28;19921;-44
2022/05/20 16:55:12;;;;;;;;;;;;;;;;;;5035131;28;19977;-44
2022/05/20 17:03:05;;;;;;;;;;;;;;;;;;5035551;28;19975;-43
2022/05/20 17:05:30;;;;;;;;;;;;;;;;;;5035222;28;19909;-43
2022/05/20 17:07:55;;;;;;;;;;;;;;;;;;5034890;28;19925;-43
2022/05/20 17:10:21;;;;;;;;;;;;;;;;;;5034182;28;20354;-43
2022/05/20 17:12:46;;;;;;;;;;;;;;;;;;5035092;28;20020;-43
2022/05/20 17:15:11;;;;;;;;;;;;;;;;;;5035183;28;20379;-43
2022/05/20 17:17:37;;;;;;;;;;;;;;;;;;5034986;28;19916;-43
2022/05/20 17:20:05;;;;;;;;;;;;;;;;;;5034980;28;20381;-44
2022/05/20 17:25:14;;;;;;;;;;;;;;;;;;5034864;28;19920;-43
2022/05/20 17:27:39;;;;;;;;;;;;;;;;;;5032202;28;20283;-44